Flight Track Log - Related Links

Times and Time Zones

All times are in EDT time to prevent confusion due to time zone crossing. See the ASQ6151 flight status page for this flight to view local times or setup timezone preferences in your user account.

Time Position Orientation Groundspeed Altitude Reporting Facility
EDT Latitude Longitude Course Direction KTS MPH feet Rate Location/Type
Sat 06:11:21 AM 42.7653 -73.8061 198° South 156 180 1,100  Level Boston Center
Sat 06:11:57 AM 42.7922 -73.8067 359° North 161 185 2,400 2,250 Climbing Boston Center
Sat 06:12:41 AM 42.8125 -73.8525 301° West 193 222 4,100 2,365 Climbing Boston Center
Sat 06:13:41 AM 42.8408 -73.9211 299° West 213 245 6,500 2,400 Climbing Boston Center
Sat 06:14:00 AM 42.4833 -73.9156 270° West  Level FlightAware Approximate
Sat 06:14:41 AM 42.8669 -73.9925 297° West 218 251 8,900  Level Boston Center
Sat 06:15:00 AM 42.3954 -73.9497 195° South  Level FlightAware Approximate
Sat 06:15:41 AM 42.8953 -74.0583 300° West 218 251 11,200  Level Boston Center
Sat 06:16:00 AM 42.3072 -73.9850 198° South  Level FlightAware Approximate
Sat 06:16:41 AM 42.8817 -74.1431 258° West 387 445 12,700  Level Boston Center
Sat 06:17:41 AM 42.8369 -74.2097 228° Southwest 287 330 15,000 2,200 Climbing Boston Center
Sat 06:18:41 AM 42.7792 -74.2872 225° Southwest 268 308 17,100 1,950 Climbing Boston Center
Sat 06:19:41 AM 42.7247 -74.3167 202° Southwest 371 427 18,900 1,250 Climbing Boston Center
Sat 06:20:41 AM 42.6522 -74.2806 160° South 328 377 19,600 650 Climbing Boston Center
Sat 06:21:41 AM 42.5800 -74.2361 156° South 307 353 20,200 1,050 Climbing Boston Center
Sat 06:22:41 AM 42.4706 -74.1739 157° South 328 377 21,700 1,400 Climbing Boston Center
Sat 06:23:41 AM 42.3797 -74.1181 156° South 344 396 23,000 1,150 Climbing Boston Center
Sat 06:24:41 AM 42.2867 -74.0650 157° South 355 409 24,000 1,050 Climbing Boston Center
Sat 06:25:41 AM 42.2100 -74.0378 165° South 355 409 25,100 1,400 Climbing Boston Center
Sat 06:26:41 AM 42.0953 -74.0433 182° South 350 403 26,800 1,450 Climbing Boston Center
Sat 06:27:41 AM 41.9969 -74.0686 191° South 345 397 28,000 600 Climbing Boston Center
Sat 06:28:41 AM 41.9067 -74.1167 202° Southwest 345 397 28,000  Level Boston Center
Sat 06:30:30 AM 41.7219 -74.2006 199° South 382 440 28,000  Level New York Center
Sat 06:31:32 AM 41.6142 -74.2506 199° South 401 461 28,000  Level New York Center
Sat 06:32:29 AM 41.5106 -74.3061 202° Southwest 406 467 28,000  Level New York Center
Sat 06:33:29 AM 41.4008 -74.3583 200° South 419 482 28,000  Level New York Center
Sat 06:34:31 AM 41.2825 -74.4128 199° South 431 496 28,000  Level New York Center
Sat 06:35:29 AM 41.1683 -74.4644 199° South 438 504 28,000  Level New York Center
Sat 06:36:29 AM 41.0519 -74.5214 200° South 444 511 28,000  Level New York Center
Sat 06:37:31 AM 40.9394 -74.5892 204° Southwest 449 517 28,000  Level New York Center
Sat 06:38:31 AM 40.8683 -74.7225 235° Southwest 431 496 28,000  Level New York Center
Sat 06:39:32 AM 40.8033 -74.8611 238° Southwest 441 507 28,000  Level New York Center
Sat 06:40:29 AM 40.7400 -74.9997 239° Southwest 447 514 28,000 -513 Level New York Center
Sat 06:41:29 AM 40.6744 -75.1408 239° Southwest 447 514 27,000 -1,091 Descending New York Center
Sat 06:42:30 AM 40.6111 -75.2761 238° Southwest 447 514 25,800 -1,140 Descending New York Center
Sat 06:43:30 AM 40.5453 -75.4111 237° Southwest 442 509 24,700 -1,140 Descending New York Center
Sat 06:44:31 AM 40.4883 -75.5356 239° Southwest 442 509 23,500 -1,289 Descending New York Center
Sat 06:45:31 AM 40.4267 -75.6703 239° Southwest 442 509 22,100 -1,678 Descending New York Center
Sat 06:46:29 AM 40.3608 -75.7964 236° Southwest 442 509 20,200 -1,059 Descending New York Center
Sat 06:47:30 AM 40.2897 -75.9436 238° Southwest 436 502 20,000 -98 Descending New York Center
Sat 06:48:31 AM 40.2303 -76.0644 237° Southwest 431 496 20,000  Level New York Center
Sat 06:49:29 AM 40.1819 -76.1639 238° Southwest 420 483 20,000  Level New York Center
Sat 06:50:30 AM 40.1153 -76.2972 237° Southwest 414 476 20,000  Level New York Center
Sat 06:51:29 AM 40.0594 -76.4203 239° Southwest 409 471 20,000  Level New York Center
Sat 06:52:30 AM 40.0014 -76.5458 239° Southwest 409 471 20,000 -1,061 Level New York Center
Sat 06:54:47 AM 39.8667 -76.8500 240° Southwest 400 460 16,500 -1,675 Descending Potomac TRACON
Sat 06:55:47 AM 39.8167 -76.9667 241° Southwest 386 444 14,500 -1,632 Descending Potomac TRACON
Sat 06:56:41 AM 39.7500 -77.0667 229° Southwest 379 436 13,400 -1,105 Descending Potomac TRACON
Sat 06:57:41 AM 39.7000 -77.1833 241° Southwest 378 435 12,400 -1,368 Descending Potomac TRACON
Sat 06:58:35 AM 39.6500 -77.2833 237° Southwest 378 435 10,800 -1,421 Descending Potomac TRACON
Sat 06:59:35 AM 39.5500 -77.3167 194° South 331 381 9,700 -1,421 Descending Potomac TRACON
Sat 07:00:29 AM 39.4833 -77.3500 201° Southwest 312 359 8,100 -1,368 Descending Potomac TRACON
Sat 07:01:29 AM 39.4000 -77.3667 189° South 308 354 7,100 -1,250 Descending Potomac TRACON
Sat 07:02:29 AM 39.3167 -77.3667 180° South 303 349 5,600 -1,316 Descending Potomac TRACON
Sat 07:03:23 AM 39.2500 -77.3667 180° South 281 323 4,600 -842 Descending Potomac TRACON
Sat 07:04:23 AM 39.1667 -77.3667 180° South 288 331 4,000 -300 Descending Potomac TRACON
Sat 07:05:23 AM 39.0833 -77.3500 171° South 294 338 4,000 -450 Level Potomac TRACON
Sat 07:06:23 AM 39.0000 -77.3500 180° South 289 333 3,100 -474 Descending Potomac TRACON
Sat 07:07:17 AM 38.9333 -77.3500 180° South 291 335 3,100 -53 Level Potomac TRACON
Sat 07:08:17 AM 38.8500 -77.3667 189° South 234 269 3,000 -100 Descending Potomac TRACON
Sat 07:09:17 AM 38.8000 -77.3667 180° South 236 272 2,900 -450 Descending Potomac TRACON
Sat 07:10:17 AM 38.7833 -77.4167 247° West 177 204 2,100 -800 Descending Potomac TRACON

Login

Don't have an account? Register now (free) for customized features, flight alerts, and more!